createdAt,value
2022-11-21T06:28:36.047Z,99307.73
2022-11-21T06:31:07.803Z,99309.96
2022-11-21T06:33:35.457Z,99303.98
2022-11-21T06:36:05.484Z,99300.36
2022-11-21T06:38:33.247Z,99301.38
2022-11-21T06:41:00.500Z,99304.25
2022-11-21T06:43:28.676Z,99312.44
2022-11-21T06:45:58.913Z,99316.38
2022-11-21T06:48:26.270Z,99324.04
2022-11-21T06:50:53.502Z,99323.20
2022-11-21T06:53:20.857Z,99327.13
2022-11-21T06:55:47.963Z,99326.80
2022-11-21T06:58:15.260Z,99328.35
2022-11-21T07:00:42.411Z,99323.75
2022-11-21T07:03:10.986Z,99317.45
2022-11-21T07:05:38.371Z,99319.79
2022-11-21T07:08:11.929Z,99317.34
2022-11-21T07:10:57.292Z,99320.33
2022-11-21T07:13:28.687Z,99323.16
2022-11-21T07:16:02.381Z,99317.48
2022-11-21T07:18:30.379Z,99315.20
2022-11-21T07:21:00.983Z,99306.73
2022-11-21T07:23:28.646Z,99296.91
2022-11-21T07:25:56.101Z,99294.19
2022-11-21T07:28:24.065Z,99287.87
2022-11-21T07:30:51.275Z,99278.46
2022-11-21T07:33:18.361Z,99278.43
2022-11-21T07:35:45.811Z,99278.40
2022-11-21T07:38:13.463Z,99284.52
2022-11-21T07:40:40.686Z,99276.80
2022-11-21T07:43:10.969Z,99275.23
2022-11-21T07:45:38.707Z,99267.14
2022-11-21T07:48:08.938Z,99268.84
2022-11-21T07:50:36.931Z,99265.66
2022-11-21T07:53:06.335Z,99265.05
2022-11-21T07:55:39.061Z,99263.04
2022-11-21T07:58:10.262Z,99268.23
2022-11-21T08:00:39.825Z,99272.04
2022-11-21T08:03:08.417Z,99274.14
2022-11-21T08:05:40.696Z,99274.17
2022-11-21T08:08:10.117Z,99275.63
2022-11-21T08:10:40.823Z,99276.88
2022-11-21T08:13:08.102Z,99274.84
2022-11-21T08:15:35.395Z,99276.35
2022-11-21T08:18:10.531Z,99279.07
2022-11-21T08:20:37.716Z,99281.16
2022-11-21T08:23:06.163Z,99289.30
2022-11-21T08:25:33.707Z,99282.70
2022-11-21T08:28:02.863Z,99280.02
2022-11-21T08:30:30.708Z,99277.02
2022-11-21T08:32:58.649Z,99274.73
2022-11-21T08:35:26.084Z,99272.72
2022-11-21T08:37:58.446Z,99271.47
2022-11-21T08:40:26.397Z,99271.92
2022-11-21T08:42:59.413Z,99269.91
2022-11-21T08:45:26.679Z,99276.23
2022-11-21T08:47:54.128Z,99278.55
2022-11-21T08:50:23.351Z,99274.98
2022-11-21T08:52:50.907Z,99269.57
2022-11-21T08:55:18.561Z,99267.37
2022-11-21T08:57:46.406Z,99266.59
2022-11-21T09:00:16.779Z,99266.90
2022-11-21T09:02:44.078Z,99266.64
2022-11-21T09:05:12.626Z,99277.00
2022-11-21T09:07:41.345Z,99270.35
2022-11-21T09:10:10.995Z,99266.29
2022-11-21T09:12:38.433Z,99265.29
2022-11-21T09:15:23.826Z,99262.91
2022-11-21T09:18:08.250Z,99255.27
2022-11-21T09:20:40.164Z,99249.95
2022-11-21T09:23:09.506Z,99254.64
2022-11-21T09:25:36.982Z,99257.41
2022-11-21T09:28:06.427Z,99254.36
2022-11-21T09:30:34.119Z,99251.59
2022-11-21T09:33:04.765Z,99251.56
2022-11-21T09:35:32.372Z,99254.20
2022-11-21T09:38:01.425Z,99244.37
2022-11-21T09:40:30.379Z,99236.48
2022-11-21T09:43:11.914Z,99235.59
2022-11-21T09:45:47.235Z,99236.73
2022-11-21T09:48:18.223Z,99238.95
2022-11-21T09:50:53.820Z,99232.11
2022-11-21T09:53:25.592Z,99227.69
2022-11-21T09:55:58.167Z,99232.17
2022-11-21T09:58:31.151Z,99229.23
2022-11-21T10:00:58.707Z,99212.60
2022-11-21T10:06:30.606Z,99198.70
2022-11-21T10:09:08.497Z,99196.56
2022-11-21T10:12:07.089Z,99198.98
2022-11-21T10:14:48.232Z,99198.64
2022-11-21T10:17:24.055Z,99199.23
2022-11-21T10:20:15.947Z,99195.13
2022-11-21T10:23:06.342Z,99183.88
2022-11-21T10:25:38.637Z,99184.44
2022-11-21T10:28:09.189Z,99178.51
2022-11-21T10:30:37.008Z,99178.94
2022-11-21T10:33:13.275Z,99181.04
2022-11-21T10:35:45.122Z,99175.70
2022-11-21T10:38:23.452Z,99175.57
2022-11-21T10:40:55.926Z,99171.09
2022-11-21T10:43:52.238Z,99169.17
2022-11-21T10:46:19.407Z,99168.67
2022-11-21T10:48:55.702Z,99174.97
2022-11-21T10:51:37.768Z,99176.25
2022-11-21T10:54:30.883Z,99173.17
2022-11-21T10:57:07.038Z,99169.58
2022-11-21T10:59:34.809Z,99177.19
2022-11-21T11:02:03.757Z,99175.55
2022-11-21T11:04:41.493Z,99172.96
2022-11-21T11:07:24.444Z,99171.27
2022-11-21T11:09:52.597Z,99176.56
2022-11-21T11:13:01.602Z,99176.20
2022-11-21T11:15:29.888Z,99185.17
2022-11-21T11:18:05.809Z,99188.52
2022-11-21T11:20:40.168Z,99195.23
2022-11-21T11:23:27.978Z,99195.27
2022-11-21T11:25:56.849Z,99191.21
2022-11-21T11:28:25.541Z,99190.42
2022-11-21T11:30:55.038Z,99192.41
2022-11-21T11:33:34.016Z,99188.23
2022-11-21T11:36:14.574Z,99189.55
2022-11-21T11:38:44.236Z,99182.80
2022-11-21T11:41:21.580Z,99182.48
2022-11-21T11:44:18.376Z,99181.51
2022-11-21T11:47:12.334Z,99184.18
2022-11-21T11:49:56.882Z,99176.61
2022-11-21T11:52:27.001Z,99176.86
2022-11-21T11:54:59.953Z,99177.78
2022-11-21T11:57:31.436Z,99173.61
2022-11-21T12:00:08.435Z,99172.27
2022-11-21T12:02:50.756Z,99173.83
2022-11-21T12:05:25.175Z,99175.02
2022-11-21T12:11:13.446Z,99178.97
2022-11-21T12:13:43.394Z,99180.34
2022-11-21T12:16:14.846Z,99175.22
2022-11-21T12:18:52.360Z,99172.13
2022-11-21T12:21:21.089Z,99170.42
2022-11-21T12:23:50.512Z,99161.52
2022-11-21T12:26:32.753Z,99154.14
2022-11-21T12:29:15.335Z,99145.42
2022-11-21T12:31:59.253Z,99142.50
2022-11-21T12:34:40.942Z,99134.77
2022-11-21T12:37:20.146Z,99133.87
2022-11-21T12:40:11.603Z,99136.38
2022-11-21T12:42:51.798Z,99133.04
2022-11-21T12:45:33.549Z,99129.23
2022-11-21T12:48:33.415Z,99120.33
2022-11-21T12:51:34.817Z,99115.34
2022-11-21T12:54:34.158Z,99108.81
2022-11-21T12:57:10.486Z,99108.13
2022-11-21T12:59:47.044Z,99104.73
2022-11-21T13:02:20.251Z,99108.31
2022-11-21T13:04:51.515Z,99102.48
2022-11-21T13:07:20.173Z,99107.63
2022-11-21T13:09:52.992Z,99111.71
2022-11-21T13:12:28.819Z,99115.98
2022-11-21T13:15:06.007Z,99124.71
2022-11-21T13:17:51.730Z,99121.19
2022-11-21T13:20:26.501Z,99125.73
2022-11-21T13:22:59.316Z,99120.55
2022-11-21T13:25:50.822Z,99115.88
2022-11-21T13:28:33.566Z,99112.23
2022-11-21T13:31:01.856Z,99111.46
2022-11-21T13:33:54.053Z,99109.14
2022-11-21T13:36:53.768Z,99110.42
2022-11-21T13:39:32.553Z,99115.25
2022-11-21T13:42:22.799Z,99114.93
2022-11-21T13:44:50.960Z,99117.73
2022-11-21T13:47:47.766Z,99113.71
2022-11-21T13:50:29.690Z,99103.63
2022-11-21T13:53:11.824Z,99103.15
2022-11-21T13:55:49.701Z,99100.61
2022-11-21T13:58:32.879Z,99096.11
2022-11-21T14:01:24.206Z,99096.08
2022-11-21T14:04:23.713Z,99092.41
2022-11-21T14:06:50.933Z,99091.52
2022-11-21T14:09:26.150Z,99089.15
2022-11-21T14:11:56.047Z,99086.98
2022-11-21T14:14:33.267Z,99090.77
2022-11-21T14:17:20.649Z,99089.94
2022-11-21T14:19:49.671Z,99085.31
2022-11-21T14:22:34.622Z,99089.25
2022-11-21T14:25:07.961Z,99079.16
2022-11-21T14:27:44.960Z,99079.46
2022-11-21T14:30:33.572Z,99081.83
2022-11-21T14:33:23.398Z,99076.55
2022-11-21T14:35:52.905Z,99082.39
2022-11-21T14:38:20.886Z,99088.93
2022-11-21T14:40:48.106Z,99091.90
2022-11-21T14:43:32.529Z,99092.79
2022-11-21T14:45:59.885Z,99089.40
2022-11-21T14:48:31.640Z,99093.49
2022-11-21T14:51:02.181Z,99092.30
2022-11-21T14:53:30.777Z,99090.29
2022-11-21T14:56:01.515Z,99087.23
2022-11-21T14:58:30.177Z,99086.90
2022-11-21T15:01:07.773Z,99087.81
2022-11-21T15:03:37.291Z,99093.36
2022-11-21T15:06:12.004Z,99089.45
2022-11-21T15:11:36.143Z,99090.64
2022-11-21T15:14:15.903Z,99091.64
2022-11-21T15:16:44.020Z,99090.45
2022-11-21T15:19:13.966Z,99086.58
2022-11-21T15:21:47.331Z,99085.05
2022-11-21T15:24:31.537Z,99079.66
2022-11-21T15:26:58.872Z,99086.02
2022-11-21T15:29:26.647Z,99084.52
2022-11-21T15:35:01.939Z,99086.45
2022-11-21T15:37:30.983Z,99088.05
2022-11-21T15:39:59.335Z,99083.33
2022-11-21T15:42:39.284Z,99084.39
2022-11-21T15:45:25.471Z,99089.20
2022-11-21T15:47:53.491Z,99093.36
2022-11-21T15:50:23.962Z,99087.22
2022-11-21T15:52:53.775Z,99097.13
2022-11-21T15:55:23.751Z,99092.35
2022-11-21T15:57:14.065Z,99089.85
2022-11-21T15:57:51.105Z,99094.21
2022-11-21T16:00:20.471Z,99092.30
2022-11-21T16:02:47.791Z,99088.53
2022-11-21T16:05:18.713Z,99086.31
2022-11-21T16:07:46.131Z,99089.57
2022-11-21T16:10:22.662Z,99095.89
2022-11-21T16:12:54.461Z,99093.68
2022-11-21T16:15:21.919Z,99084.11
2022-11-21T16:17:49.076Z,99081.06
2022-11-21T16:20:17.164Z,99082.82
2022-11-21T16:22:47.799Z,99079.95
2022-11-21T16:25:15.652Z,99086.11
2022-11-21T16:27:43.594Z,99081.87
2022-11-21T16:30:12.626Z,99084.26
2022-11-21T16:32:40.306Z,99092.47
2022-11-21T16:35:08.816Z,99086.67
2022-11-21T16:37:37.007Z,99091.14
2022-11-21T16:40:04.700Z,99093.08
2022-11-21T16:42:32.143Z,99094.64
2022-11-21T16:45:00.048Z,99086.45
2022-11-21T16:47:27.552Z,99083.39
2022-11-21T16:49:55.083Z,99082.34
2022-11-21T16:52:22.781Z,99089.20
2022-11-21T16:54:50.760Z,99084.44
2022-11-21T16:57:18.300Z,99086.67
2022-11-21T16:59:47.176Z,99092.35
2022-11-21T17:02:14.553Z,99085.70
2022-11-21T17:04:42.655Z,99083.48
2022-11-21T17:07:10.422Z,99082.13
2022-11-21T17:09:37.735Z,99081.09
2022-11-21T17:12:06.635Z,99076.64
2022-11-21T17:14:34.218Z,99081.73
2022-11-21T17:17:01.812Z,99082.27
2022-11-21T17:19:29.882Z,99083.29
2022-11-21T17:21:56.973Z,99082.41
2022-11-21T17:24:24.143Z,99080.67
2022-11-21T17:26:51.957Z,99075.55
2022-11-21T17:29:19.549Z,99075.00
2022-11-21T17:31:47.159Z,99073.61
2022-11-21T17:34:15.566Z,99075.33
2022-11-21T17:36:42.643Z,99078.57
2022-11-21T17:39:09.999Z,99071.40
2022-11-21T17:41:38.188Z,99068.14
2022-11-21T17:44:05.576Z,99066.77
2022-11-21T17:46:33.026Z,99070.67
2022-11-21T17:49:00.865Z,99071.66
2022-11-21T17:51:30.320Z,99071.61
2022-11-21T17:53:57.505Z,99078.59
2022-11-21T17:56:26.904Z,99077.23
2022-11-21T17:58:55.042Z,99078.27
2022-11-21T18:01:22.707Z,99076.58
2022-11-21T18:03:56.060Z,99082.75
2022-11-21T18:06:23.642Z,99076.60
2022-11-21T18:08:52.996Z,99076.06
2022-11-21T18:11:22.445Z,99081.33
2022-11-21T18:13:50.149Z,99075.51
2022-11-21T18:16:19.257Z,99080.61
2022-11-21T18:18:46.910Z,99082.84
2022-11-21T18:21:16.164Z,99078.54
2022-11-21T18:23:44.763Z,99082.77
2022-11-21T18:26:16.035Z,99084.62
2022-11-21T18:28:43.668Z,99082.21
2022-11-21T18:31:13.357Z,99082.25
2022-11-21T18:33:41.818Z,99080.37
2022-11-21T18:36:10.781Z,99081.73
2022-11-21T18:38:48.721Z,99080.69
2022-11-21T18:41:21.688Z,99079.83
2022-11-21T18:43:53.467Z,99076.94
2022-11-21T18:46:22.786Z,99081.07
2022-11-21T18:49:08.267Z,99074.95
2022-11-21T18:51:36.366Z,99077.17
2022-11-21T18:54:07.349Z,99075.11
2022-11-21T18:56:36.440Z,99080.92
2022-11-21T18:59:06.016Z,99084.17
2022-11-21T19:01:34.266Z,99085.52
2022-11-21T19:04:02.086Z,99078.83
2022-11-21T19:06:30.261Z,99092.32
2022-11-21T19:08:59.209Z,99084.27
2022-11-21T19:11:28.251Z,99082.17
2022-11-21T19:13:56.146Z,99090.02
2022-11-21T19:16:25.547Z,99087.61
2022-11-21T19:21:42.961Z,99092.77
2022-11-21T19:24:14.391Z,99090.05
2022-11-21T19:26:42.177Z,99091.74
2022-11-21T19:29:10.007Z,99092.40
2022-11-21T19:31:44.261Z,99091.33
2022-11-21T19:34:14.246Z,99092.98
2022-11-21T19:36:41.965Z,99095.20
2022-11-21T19:39:09.957Z,99087.84
2022-11-21T19:41:38.682Z,99090.60
2022-11-21T19:44:06.049Z,99094.72
2022-11-21T19:46:36.068Z,99091.31
2022-11-21T19:49:04.549Z,99090.10
2022-11-21T19:51:34.256Z,99089.58
2022-11-21T19:54:02.638Z,99088.50
2022-11-21T19:56:30.809Z,99090.54
2022-11-21T19:58:58.864Z,99094.11
2022-11-21T20:01:28.304Z,99098.71
2022-11-21T20:03:58.102Z,99095.81
2022-11-21T20:06:27.916Z,99100.25
2022-11-21T20:08:57.168Z,99104.19
2022-11-21T20:11:25.104Z,99105.54
2022-11-21T20:13:53.356Z,99110.66
2022-11-21T20:16:23.245Z,99120.73
2022-11-21T20:18:51.768Z,99120.06
2022-11-21T20:21:20.246Z,99119.71
2022-11-21T20:23:47.487Z,99118.35
2022-11-21T20:26:15.867Z,99117.00
2022-11-21T20:28:43.429Z,99118.19
2022-11-21T20:31:13.073Z,99112.21
2022-11-21T20:33:42.167Z,99115.98
2022-11-21T20:36:14.343Z,99112.75
2022-11-21T20:38:43.233Z,99113.77
2022-11-21T20:41:10.952Z,99115.29
2022-11-21T20:44:24.594Z,99112.55
2022-11-21T20:46:24.617Z,99115.83
2022-11-21T20:48:52.270Z,99118.92
2022-11-21T20:53:06.345Z,99123.55
2022-11-21T20:54:08.596Z,99128.17
2022-11-21T20:56:38.109Z,99127.85
2022-11-21T20:59:07.290Z,99131.42
2022-11-21T21:01:35.230Z,99136.39
2022-11-21T21:04:02.845Z,99129.70
2022-11-21T21:06:30.316Z,99128.98
2022-11-21T21:08:57.566Z,99133.40
2022-11-21T21:11:50.339Z,99135.95
2022-11-21T21:14:14.452Z,99137.34
2022-11-21T21:16:41.975Z,99135.66
2022-11-21T21:19:09.223Z,99140.98
2022-11-21T21:21:37.063Z,99136.57
2022-11-21T21:24:07.510Z,99133.14
2022-11-21T21:26:41.767Z,99135.34
2022-11-21T21:29:10.978Z,99134.98
2022-11-21T21:31:38.229Z,99134.61
2022-11-21T21:34:05.723Z,99138.55
2022-11-21T21:36:33.772Z,99135.52
2022-11-21T21:39:02.482Z,99134.02
2022-11-21T21:41:32.360Z,99132.50
2022-11-21T21:44:00.467Z,99137.61
2022-11-21T21:46:29.224Z,99140.52
2022-11-21T21:48:57.681Z,99140.67
2022-11-21T21:51:26.939Z,99140.15
2022-11-21T21:53:55.176Z,99141.87
2022-11-21T21:56:23.558Z,99144.59
2022-11-21T21:58:52.653Z,99142.55
2022-11-21T22:01:22.035Z,99138.83
2022-11-21T22:03:54.069Z,99144.83
2022-11-21T22:06:22.295Z,99141.09
2022-11-21T22:08:50.571Z,99140.92
2022-11-21T22:11:20.111Z,99133.02
2022-11-21T22:13:49.071Z,99136.25
2022-11-21T22:16:16.847Z,99131.80
2022-11-21T22:18:44.319Z,99141.60
2022-11-21T22:21:19.431Z,99144.03
2022-11-21T22:24:17.338Z,99139.60
2022-11-21T22:26:35.242Z,99140.59
2022-11-21T22:29:02.589Z,99140.08
2022-11-21T22:31:32.821Z,99142.98
2022-11-21T22:34:00.427Z,99142.27
2022-11-21T22:36:28.651Z,99146.70
2022-11-21T22:38:57.585Z,99147.89
2022-11-21T22:41:26.489Z,99147.58
2022-11-21T22:43:55.433Z,99144.34
2022-11-21T22:46:23.293Z,99147.09
2022-11-21T22:48:50.960Z,99146.91
2022-11-21T22:51:20.200Z,99146.23
2022-11-21T22:53:48.337Z,99142.83
2022-11-21T22:56:16.610Z,99153.95
2022-11-21T22:58:44.058Z,99152.08
2022-11-21T23:01:13.060Z,99147.98
2022-11-21T23:03:41.432Z,99147.09
2022-11-21T23:06:11.240Z,99149.99
2022-11-21T23:08:39.016Z,99153.77
2022-11-21T23:11:08.266Z,99156.99
2022-11-21T23:13:36.509Z,99153.24
2022-11-21T23:16:04.352Z,99158.89
2022-11-21T23:18:32.017Z,99154.77
2022-11-21T23:20:59.480Z,99150.30
2022-11-21T23:23:27.239Z,99156.59
2022-11-21T23:25:55.030Z,99157.98
2022-11-21T23:28:22.486Z,99154.39
2022-11-21T23:30:50.675Z,99156.29
2022-11-21T23:33:18.444Z,99157.13
2022-11-21T23:35:47.390Z,99156.60
2022-11-21T23:38:15.974Z,99149.44
2022-11-21T23:40:45.386Z,99150.30
2022-11-21T23:43:13.146Z,99144.32
2022-11-21T23:45:40.604Z,99147.39
2022-11-21T23:48:08.932Z,99138.33
2022-11-21T23:50:36.790Z,99135.41
2022-11-21T23:53:04.205Z,99136.64
2022-11-21T23:55:31.667Z,99139.90
2022-11-21T23:57:59.149Z,99142.31
